createdAt,value
2018-12-20T00:02:20.897Z,29.30
2018-12-20T00:04:49.298Z,28.32
2018-12-20T00:07:17.828Z,30.68
2018-12-20T00:09:46.145Z,31.23
2018-12-20T00:12:14.586Z,28.17
2018-12-20T00:14:43.067Z,28.93
2018-12-20T00:17:16.618Z,27.85
2018-12-20T00:19:45.023Z,29.98
2018-12-20T00:22:13.408Z,30.60
2018-12-20T00:24:41.678Z,28.65
2018-12-20T00:27:10.080Z,30.80
2018-12-20T00:29:38.624Z,29.67
2018-12-20T00:32:07.691Z,31.45
2018-12-20T00:34:36.451Z,31.20
2018-12-20T00:37:05.011Z,31.10
2018-12-20T00:39:33.538Z,31.55
2018-12-20T00:42:02.138Z,31.07
2018-12-20T00:44:37.246Z,32.10
2018-12-20T00:47:01.031Z,31.60
2018-12-20T00:49:29.472Z,31.57
2018-12-20T00:51:57.977Z,32.42
2018-12-20T00:54:26.248Z,31.77
2018-12-20T00:56:54.466Z,29.27
2018-12-20T00:59:22.959Z,31.27
2018-12-20T01:01:51.462Z,32.42
2018-12-20T01:04:19.812Z,32.28
2018-12-20T01:06:48.100Z,34.55
2018-12-20T01:09:16.649Z,33.90
2018-12-20T01:11:44.977Z,34.35
2018-12-20T01:14:13.576Z,32.63
2018-12-20T01:16:41.962Z,34.50
2018-12-20T01:19:10.330Z,32.50
2018-12-20T01:21:38.611Z,35.85
2018-12-20T01:24:07.068Z,34.15
2018-12-20T01:26:35.363Z,32.63
2018-12-20T01:29:03.799Z,35.00
2018-12-20T01:31:32.373Z,35.05
2018-12-20T01:34:00.775Z,34.48
2018-12-20T01:36:29.120Z,35.20
2018-12-20T01:38:57.684Z,36.17
2018-12-20T01:41:26.055Z,36.00
2018-12-20T01:43:54.421Z,42.23
2018-12-20T01:46:22.820Z,44.55
2018-12-20T01:48:51.213Z,44.30
2018-12-20T01:51:19.543Z,52.05
2018-12-20T01:53:47.842Z,37.50
2018-12-20T01:56:16.337Z,38.27
2018-12-20T01:58:44.608Z,38.30
2018-12-20T02:01:13.010Z,37.53
2018-12-20T02:03:41.380Z,36.15
2018-12-20T02:06:09.627Z,36.65
2018-12-20T02:08:37.917Z,36.10
2018-12-20T02:11:06.307Z,36.73
2018-12-20T02:13:34.762Z,35.73
2018-12-20T02:16:03.143Z,37.80
2018-12-20T02:18:31.469Z,35.83
2018-12-20T02:20:59.969Z,38.50
2018-12-20T02:23:28.276Z,34.70
2018-12-20T02:25:56.738Z,37.58
2018-12-20T02:28:25.238Z,36.65
2018-12-20T02:30:53.626Z,36.07
2018-12-20T02:33:22.172Z,37.75
2018-12-20T02:35:51.064Z,35.33
2018-12-20T02:38:19.538Z,37.45
2018-12-20T02:40:47.913Z,37.63
2018-12-20T02:43:16.317Z,36.42
2018-12-20T02:45:44.771Z,39.15
2018-12-20T02:48:13.428Z,36.55
2018-12-20T02:50:41.904Z,36.50
2018-12-20T02:53:10.536Z,36.25
2018-12-20T02:55:39.158Z,37.80
2018-12-20T02:58:07.384Z,37.70
2018-12-20T03:00:35.720Z,37.48
2018-12-20T03:03:03.968Z,36.60
2018-12-20T03:05:32.400Z,35.60
2018-12-20T03:08:00.681Z,37.90
2018-12-20T03:10:28.927Z,39.38
2018-12-20T03:12:57.185Z,36.23
2018-12-20T03:15:25.617Z,38.00
2018-12-20T03:17:54.202Z,36.70
2018-12-20T03:20:22.756Z,35.90
2018-12-20T03:22:51.168Z,38.10
2018-12-20T03:25:19.719Z,39.20
2018-12-20T03:27:48.318Z,40.78
2018-12-20T03:30:16.591Z,39.05
2018-12-20T03:32:45.537Z,39.10
2018-12-20T03:35:14.088Z,39.58
2018-12-20T03:37:42.488Z,39.47
2018-12-20T03:40:10.796Z,38.78
2018-12-20T03:42:39.083Z,38.60
2018-12-20T03:45:07.550Z,37.75
2018-12-20T03:47:35.933Z,37.28
2018-12-20T03:56:50.281Z,38.67
2018-12-20T03:59:18.851Z,39.85
2018-12-20T04:01:47.315Z,39.00
2018-12-20T04:04:15.837Z,39.20
2018-12-20T04:06:44.291Z,41.07
2018-12-20T04:09:12.616Z,37.63
2018-12-20T04:11:40.832Z,38.13
2018-12-20T04:14:09.353Z,39.92
2018-12-20T04:16:37.633Z,38.88
2018-12-20T04:19:05.892Z,39.67
2018-12-20T04:21:34.293Z,38.15
2018-12-20T04:24:02.728Z,38.50
2018-12-20T04:26:31.253Z,41.53
2018-12-20T04:28:59.948Z,41.33
2018-12-20T04:31:28.359Z,40.23
2018-12-20T04:33:56.822Z,40.45
2018-12-20T04:36:25.181Z,41.88
2018-12-20T04:38:53.892Z,40.78
2018-12-20T04:41:22.585Z,38.80
2018-12-20T04:43:51.064Z,40.10
2018-12-20T04:46:19.635Z,40.45
2018-12-20T04:48:48.186Z,41.35
2018-12-20T04:51:16.527Z,41.53
2018-12-20T04:53:45.073Z,42.35
2018-12-20T04:56:13.742Z,41.70
2018-12-20T04:58:42.220Z,41.85
2018-12-20T05:01:10.446Z,40.75
2018-12-20T05:03:38.938Z,39.85
2018-12-20T05:06:07.363Z,41.95
2018-12-20T05:08:35.930Z,39.55
2018-12-20T05:11:04.484Z,38.90
2018-12-20T05:13:32.936Z,41.65
2018-12-20T05:16:01.755Z,40.38
2018-12-20T05:18:30.532Z,39.92
2018-12-20T05:20:59.278Z,41.60
2018-12-20T05:23:28.142Z,39.42
2018-12-20T05:25:56.799Z,41.63
2018-12-20T05:28:25.299Z,39.13
2018-12-20T05:30:53.603Z,39.53
2018-12-20T05:33:22.152Z,42.40
2018-12-20T05:35:50.574Z,40.88
2018-12-20T05:38:18.990Z,40.83
2018-12-20T05:40:47.475Z,42.17
2018-12-20T05:43:15.923Z,42.15
2018-12-20T05:45:44.753Z,41.75
2018-12-20T05:48:13.277Z,37.80
2018-12-20T05:50:41.707Z,39.80
2018-12-20T05:53:09.988Z,40.12
2018-12-20T05:55:38.265Z,39.20
2018-12-20T05:58:06.582Z,39.75
2018-12-20T06:00:35.242Z,38.17
2018-12-20T06:03:04.402Z,39.98
2018-12-20T06:05:32.852Z,38.77
2018-12-20T06:08:01.186Z,38.58
2018-12-20T06:10:29.535Z,38.20
2018-12-20T06:12:57.795Z,39.00
2018-12-20T06:15:26.298Z,38.15
2018-12-20T06:17:54.656Z,36.30
2018-12-20T06:20:23.050Z,39.07
2018-12-20T06:22:51.681Z,37.23
2018-12-20T06:25:21.378Z,39.83
2018-12-20T06:27:49.939Z,39.38
2018-12-20T06:30:18.207Z,40.35
2018-12-20T06:32:46.569Z,41.45
2018-12-20T06:35:14.839Z,37.85
2018-12-20T06:37:43.159Z,39.88
2018-12-20T06:40:11.504Z,39.78
2018-12-20T06:42:40.412Z,41.58
2018-12-20T06:45:08.859Z,38.13
2018-12-20T06:47:37.132Z,38.88
2018-12-20T06:50:05.786Z,39.42
2018-12-20T06:52:34.048Z,36.75
2018-12-20T06:55:02.542Z,36.55
2018-12-20T06:57:30.820Z,37.98
2018-12-20T06:59:59.016Z,41.60
2018-12-20T07:02:27.341Z,35.30
2018-12-20T07:04:55.685Z,39.50
2018-12-20T07:07:23.899Z,37.55
2018-12-20T07:09:52.184Z,32.75
2018-12-20T07:12:20.454Z,36.63
2018-12-20T07:14:48.809Z,36.85
2018-12-20T07:17:17.177Z,41.15
2018-12-20T07:19:45.479Z,39.95
2018-12-20T07:22:13.807Z,38.50
2018-12-20T07:24:42.104Z,43.75
2018-12-20T07:27:10.473Z,37.75
2018-12-20T07:29:38.850Z,38.25
2018-12-20T07:32:07.293Z,41.20
2018-12-20T07:34:35.539Z,40.30
2018-12-20T07:37:03.730Z,45.23
2018-12-20T07:39:31.941Z,42.48
2018-12-20T07:42:00.319Z,42.60
2018-12-20T07:44:28.747Z,51.75
2018-12-20T07:46:57.058Z,43.28
2018-12-20T07:49:25.429Z,42.62
2018-12-20T07:51:53.872Z,41.13
2018-12-20T07:54:22.287Z,39.03
2018-12-20T07:56:50.567Z,39.20
2018-12-20T07:59:23.530Z,38.25
2018-12-20T08:01:49.387Z,39.92
2018-12-20T08:04:17.745Z,38.90
2018-12-20T08:06:45.967Z,38.65
2018-12-20T08:09:14.304Z,41.35
2018-12-20T08:11:42.692Z,42.15
2018-12-20T08:14:10.959Z,42.40
2018-12-20T08:16:46.017Z,44.97
2018-12-20T08:19:10.134Z,41.87
2018-12-20T08:21:38.500Z,39.83
2018-12-20T08:24:06.793Z,33.30
2018-12-20T08:26:35.192Z,40.70
2018-12-20T08:29:03.420Z,38.42
2018-12-20T08:31:31.668Z,41.10
2018-12-20T08:33:59.988Z,41.20
2018-12-20T08:36:28.295Z,40.23
2018-12-20T08:38:56.597Z,44.30
2018-12-20T08:41:25.320Z,39.05
2018-12-20T08:43:55.314Z,40.28
2018-12-20T08:46:23.594Z,42.30
2018-12-20T08:48:51.791Z,42.23
2018-12-20T08:51:21.111Z,41.23
2018-12-20T08:53:49.388Z,40.92
2018-12-20T08:56:17.706Z,42.33
2018-12-20T08:58:45.991Z,40.78
2018-12-20T09:01:14.356Z,40.83
2018-12-20T09:03:42.808Z,39.98
2018-12-20T09:06:11.159Z,43.48
2018-12-20T09:08:39.411Z,43.55
2018-12-20T09:11:07.719Z,38.42
2018-12-20T09:13:36.020Z,40.88
2018-12-20T09:16:04.200Z,42.38
2018-12-20T09:18:32.427Z,42.98
2018-12-20T09:21:00.777Z,42.25
2018-12-20T09:23:29.020Z,43.48
2018-12-20T09:25:57.277Z,46.65
2018-12-20T09:28:25.540Z,43.83
2018-12-20T09:30:53.740Z,45.83
2018-12-20T09:33:22.090Z,42.70
2018-12-20T09:35:51.765Z,44.03
2018-12-20T09:38:20.023Z,44.03
2018-12-20T09:40:48.355Z,45.03
2018-12-20T09:43:16.603Z,43.58
2018-12-20T09:45:44.904Z,45.20
2018-12-20T09:48:13.169Z,43.73
2018-12-20T09:50:41.469Z,43.20
2018-12-20T09:53:09.794Z,42.05
2018-12-20T09:55:38.119Z,44.63
2018-12-20T09:58:06.408Z,40.45
2018-12-20T10:00:35.034Z,37.78
2018-12-20T10:03:03.284Z,41.73
2018-12-20T10:05:31.594Z,36.83
2018-12-20T10:07:59.795Z,40.15
2018-12-20T10:10:28.171Z,37.10
2018-12-20T10:12:56.378Z,40.70
2018-12-20T10:15:24.625Z,44.25
2018-12-20T10:17:52.978Z,46.30
2018-12-20T10:20:21.283Z,47.70
2018-12-20T10:22:49.439Z,44.77
2018-12-20T10:25:17.726Z,44.55
2018-12-20T10:27:45.968Z,44.83
2018-12-20T10:30:14.231Z,43.00
2018-12-20T10:32:42.904Z,44.53
2018-12-20T10:35:11.221Z,44.30
2018-12-20T10:37:39.481Z,46.20
2018-12-20T10:40:07.782Z,45.98
2018-12-20T10:42:36.239Z,44.27
2018-12-20T10:45:05.033Z,45.23
2018-12-20T10:47:33.405Z,42.48
2018-12-20T10:50:02.014Z,41.30
2018-12-20T10:52:30.296Z,43.35
2018-12-20T10:54:58.564Z,39.92
2018-12-20T10:57:26.854Z,40.52
2018-12-20T10:59:55.191Z,36.65
2018-12-20T11:02:28.919Z,38.63
2018-12-20T11:05:04.833Z,37.42
2018-12-20T11:07:38.432Z,38.25
2018-12-20T11:10:13.378Z,37.28
2018-12-20T11:12:47.866Z,37.67
2018-12-20T11:15:22.926Z,36.88
2018-12-20T11:17:51.662Z,36.28
2018-12-20T11:20:20.019Z,36.42
2018-12-20T11:22:48.463Z,37.45
2018-12-20T11:25:16.699Z,35.23
2018-12-20T11:27:45.326Z,36.05
2018-12-20T11:30:13.748Z,40.65
2018-12-20T11:32:41.977Z,35.48
2018-12-20T11:35:10.254Z,40.58
2018-12-20T11:37:38.584Z,35.28
2018-12-20T11:40:08.137Z,36.68
2018-12-20T11:42:38.190Z,35.50
2018-12-20T11:45:07.260Z,34.55
2018-12-20T11:47:35.465Z,36.60
2018-12-20T11:50:03.870Z,36.93
2018-12-20T11:52:32.271Z,32.70
2018-12-20T11:55:00.717Z,31.50
2018-12-20T11:57:29.004Z,34.48
2018-12-20T11:59:57.355Z,34.80
2018-12-20T12:02:25.787Z,35.45
2018-12-20T12:04:54.159Z,35.25
2018-12-20T12:07:22.611Z,33.28
2018-12-20T12:09:50.870Z,35.33
2018-12-20T12:12:19.266Z,37.30
2018-12-20T12:14:47.677Z,40.70
2018-12-20T12:17:15.954Z,40.33
2018-12-20T12:19:44.240Z,42.27
2018-12-20T12:22:12.532Z,39.85
2018-12-20T12:24:40.830Z,38.80
2018-12-20T12:27:09.203Z,42.73
2018-12-20T12:29:37.656Z,44.73
2018-12-20T12:32:05.996Z,40.60
2018-12-20T12:34:34.341Z,37.53
2018-12-20T12:37:02.735Z,35.40
2018-12-20T12:39:31.429Z,38.73
2018-12-20T12:41:59.744Z,42.93
2018-12-20T12:44:28.018Z,41.27
2018-12-20T12:46:56.368Z,38.92
2018-12-20T12:49:24.699Z,36.55
2018-12-20T12:51:53.697Z,38.20
2018-12-20T12:54:22.064Z,40.73
2018-12-20T12:56:50.336Z,39.63
2018-12-20T12:59:18.710Z,40.50
2018-12-20T13:01:46.911Z,52.15
2018-12-20T13:04:15.366Z,40.75
2018-12-20T13:06:43.814Z,41.00
2018-12-20T13:09:15.623Z,37.53
2018-12-20T13:11:43.980Z,33.60
2018-12-20T13:14:12.403Z,35.87
2018-12-20T13:16:40.839Z,37.33
2018-12-20T13:19:09.087Z,37.17
2018-12-20T13:21:37.619Z,31.97
2018-12-20T13:24:05.823Z,33.95
2018-12-20T13:26:34.019Z,34.27
2018-12-20T13:29:02.262Z,36.98
2018-12-20T13:31:30.463Z,35.75
2018-12-20T13:33:58.767Z,36.00
2018-12-20T13:36:27.090Z,37.30
2018-12-20T13:38:55.393Z,41.23
2018-12-20T13:41:23.770Z,39.13
2018-12-20T13:43:52.155Z,38.30
2018-12-20T13:46:20.389Z,39.33
2018-12-20T13:48:48.850Z,38.00
2018-12-20T13:51:17.173Z,33.90
2018-12-20T13:53:45.428Z,35.95
2018-12-20T13:56:13.828Z,32.05
2018-12-20T13:58:42.088Z,33.02
2018-12-20T14:01:10.459Z,34.43
2018-12-20T14:03:38.949Z,32.58
2018-12-20T14:06:07.364Z,34.35
2018-12-20T14:08:35.702Z,36.07
2018-12-20T14:11:04.014Z,35.80
2018-12-20T14:13:32.383Z,32.95
2018-12-20T14:16:00.835Z,31.75
2018-12-20T14:18:31.178Z,35.23
2018-12-20T14:20:59.702Z,36.60
2018-12-20T14:23:28.113Z,39.78
2018-12-20T14:25:57.257Z,38.40
2018-12-20T14:28:25.780Z,39.27
2018-12-20T14:30:54.139Z,32.98
2018-12-20T14:33:22.495Z,33.58
2018-12-20T14:35:51.267Z,31.87
2018-12-20T14:38:19.891Z,34.20
2018-12-20T14:40:48.331Z,33.60
2018-12-20T14:43:16.823Z,31.80
2018-12-20T14:45:45.247Z,36.23
2018-12-20T14:48:18.109Z,34.73
2018-12-20T14:50:47.781Z,32.85
2018-12-20T14:53:16.054Z,36.93
2018-12-20T14:55:44.344Z,33.95
2018-12-20T14:58:12.816Z,34.10
2018-12-20T15:00:41.568Z,32.60
2018-12-20T15:03:10.285Z,32.90
2018-12-20T15:05:38.528Z,32.05
2018-12-20T15:08:06.782Z,34.88
2018-12-20T15:10:35.152Z,38.83
2018-12-20T15:13:03.547Z,38.35
2018-12-20T15:15:31.876Z,35.85
2018-12-20T15:18:00.260Z,37.73
2018-12-20T15:20:28.607Z,37.13
2018-12-20T15:22:56.988Z,36.75
2018-12-20T15:25:25.342Z,36.05
2018-12-20T15:27:53.688Z,36.53
2018-12-20T15:30:22.133Z,38.20
2018-12-20T15:32:50.403Z,35.30
2018-12-20T15:35:18.885Z,40.05
2018-12-20T15:37:47.177Z,40.75
2018-12-20T15:40:15.534Z,38.58
2018-12-20T15:42:47.098Z,34.15
2018-12-20T15:45:15.485Z,38.88
2018-12-20T15:47:43.978Z,32.15
2018-12-20T15:50:12.411Z,38.08
2018-12-20T15:52:40.674Z,37.65
2018-12-20T15:55:09.950Z,34.83
2018-12-20T15:57:38.373Z,34.10
2018-12-20T16:00:08.688Z,38.70
2018-12-20T16:02:36.969Z,38.80
2018-12-20T16:05:06.029Z,36.13
2018-12-20T16:07:34.346Z,40.05
2018-12-20T16:10:02.752Z,39.15
2018-12-20T16:12:31.013Z,38.48
2018-12-20T16:14:59.855Z,35.98
2018-12-20T16:17:28.202Z,37.08
2018-12-20T16:19:56.467Z,36.83
2018-12-20T16:22:24.785Z,36.83
2018-12-20T16:24:53.021Z,35.97
2018-12-20T16:27:21.381Z,36.48
2018-12-20T16:29:49.636Z,35.60
2018-12-20T16:32:18.856Z,35.73
2018-12-20T16:34:47.177Z,34.38
2018-12-20T16:37:15.388Z,33.80
2018-12-20T16:39:43.729Z,33.38
2018-12-20T16:42:12.040Z,34.03
2018-12-20T16:44:41.278Z,33.55
2018-12-20T16:47:09.647Z,33.25
2018-12-20T16:49:37.969Z,32.03
2018-12-20T16:52:06.941Z,34.30
2018-12-20T16:54:35.379Z,34.13
2018-12-20T16:57:03.749Z,33.98
2018-12-20T16:59:35.327Z,33.80
2018-12-20T17:02:03.804Z,34.60
2018-12-20T17:04:32.091Z,34.88
2018-12-20T17:07:00.371Z,36.28
2018-12-20T17:09:28.696Z,38.53
2018-12-20T17:11:57.147Z,36.35
2018-12-20T17:14:25.484Z,37.00
2018-12-20T17:16:53.926Z,40.43
2018-12-20T17:19:22.523Z,38.00
2018-12-20T17:21:53.728Z,39.20
2018-12-20T17:24:22.012Z,34.00
2018-12-20T17:28:19.852Z,37.08
2018-12-20T17:30:48.165Z,32.00
2018-12-20T17:33:16.523Z,35.65
2018-12-20T17:35:44.840Z,37.40
2018-12-20T17:38:13.094Z,35.60
2018-12-20T17:40:41.534Z,41.98
2018-12-20T17:43:09.984Z,39.78
2018-12-20T17:45:38.359Z,37.67
2018-12-20T17:48:07.227Z,35.15
2018-12-20T17:50:35.546Z,34.23
2018-12-20T17:53:03.909Z,44.73
2018-12-20T17:55:32.310Z,33.45
2018-12-20T17:58:00.668Z,35.80
2018-12-20T18:00:29.187Z,33.20
2018-12-20T18:02:57.855Z,41.10
2018-12-20T18:05:26.324Z,29.35
2018-12-20T18:07:54.904Z,33.35
2018-12-20T18:10:23.867Z,30.47
2018-12-20T18:12:52.311Z,30.90
2018-12-20T18:15:20.666Z,31.68
2018-12-20T18:17:48.987Z,30.92
2018-12-20T18:20:17.755Z,30.68
2018-12-20T18:22:46.100Z,34.95
2018-12-20T18:25:14.404Z,32.90
2018-12-20T18:27:42.695Z,28.97
2018-12-20T18:30:11.907Z,28.87
2018-12-20T18:32:40.235Z,30.97
2018-12-20T18:35:08.607Z,30.00
2018-12-20T18:37:37.072Z,27.35
2018-12-20T18:40:06.970Z,28.93
2018-12-20T18:42:35.402Z,30.40
2018-12-20T18:45:03.855Z,30.15
2018-12-20T18:47:32.457Z,27.27
2018-12-20T18:50:00.964Z,28.57
2018-12-20T18:52:29.470Z,29.55
2018-12-20T18:54:57.759Z,31.10
2018-12-20T18:57:26.094Z,31.15
2018-12-20T18:59:54.336Z,30.92
2018-12-20T19:02:22.687Z,28.70
2018-12-20T19:04:51.294Z,29.75
2018-12-20T19:07:19.542Z,28.32
2018-12-20T19:09:47.884Z,29.77
2018-12-20T19:12:16.263Z,26.33
2018-12-20T19:14:44.815Z,29.10
2018-12-20T19:17:13.130Z,31.48
2018-12-20T19:19:41.587Z,30.27
2018-12-20T19:22:09.823Z,29.02
2018-12-20T19:24:38.334Z,28.40
2018-12-20T19:27:06.685Z,25.00
2018-12-20T19:29:34.982Z,27.93
2018-12-20T19:32:03.338Z,28.95
2018-12-20T19:34:31.669Z,27.37
2018-12-20T19:37:00.126Z,27.37
2018-12-20T19:39:29.299Z,29.00
2018-12-20T19:42:02.081Z,31.60
2018-12-20T19:44:30.370Z,27.50
2018-12-20T19:46:58.853Z,29.25
2018-12-20T19:49:27.338Z,26.43
2018-12-20T19:51:55.842Z,26.27
2018-12-20T19:54:24.288Z,28.02
2018-12-20T19:56:53.564Z,29.00
2018-12-20T19:59:22.026Z,31.37
2018-12-20T20:01:50.428Z,33.53
2018-12-20T20:04:18.765Z,33.38
2018-12-20T20:06:47.139Z,31.65
2018-12-20T20:09:15.498Z,31.80
2018-12-20T20:11:43.933Z,31.40
2018-12-20T20:14:12.291Z,27.93
2018-12-20T20:16:40.654Z,30.77
2018-12-20T20:19:09.086Z,30.82
2018-12-20T20:21:37.480Z,30.37
2018-12-20T20:24:06.042Z,26.48
2018-12-20T20:26:34.512Z,26.82
2018-12-20T20:29:03.024Z,28.15
2018-12-20T20:31:31.362Z,26.70
2018-12-20T20:33:59.720Z,24.72
2018-12-20T20:36:28.600Z,25.50
2018-12-20T20:39:01.933Z,23.70
2018-12-20T20:41:28.627Z,23.40
2018-12-20T20:43:57.086Z,22.30
2018-12-20T20:46:25.385Z,21.95
2018-12-20T20:48:53.685Z,20.90
2018-12-20T20:51:22.158Z,21.02
2018-12-20T20:53:51.197Z,21.17
2018-12-20T20:56:19.822Z,23.55
2018-12-20T20:58:48.209Z,23.77
2018-12-20T21:01:17.246Z,23.65
2018-12-20T21:03:46.437Z,23.98
2018-12-20T21:06:14.996Z,23.67
2018-12-20T21:08:43.565Z,22.30
2018-12-20T21:11:11.868Z,21.37
2018-12-20T21:13:40.340Z,21.45
2018-12-20T21:16:08.883Z,24.23
2018-12-20T21:18:37.283Z,20.60
2018-12-20T21:21:07.996Z,21.82
2018-12-20T21:23:37.822Z,21.02
2018-12-20T21:26:06.205Z,20.65
2018-12-20T21:28:34.584Z,20.80
2018-12-20T21:31:02.820Z,20.15
2018-12-20T21:33:31.113Z,20.17
2018-12-20T21:35:59.442Z,18.20
2018-12-20T21:38:27.936Z,19.05
2018-12-20T21:40:56.465Z,18.90
2018-12-20T21:43:24.789Z,19.15
2018-12-20T21:45:53.066Z,23.65
2018-12-20T21:48:21.426Z,18.77
2018-12-20T21:50:49.969Z,16.80
2018-12-20T21:53:18.514Z,15.58
2018-12-20T21:55:46.886Z,16.95
2018-12-20T21:58:15.266Z,16.00
2018-12-20T22:00:43.767Z,23.83
2018-12-20T22:03:12.172Z,16.80
2018-12-20T22:05:40.568Z,17.60
2018-12-20T22:08:09.602Z,15.18
2018-12-20T22:10:37.915Z,16.23
2018-12-20T22:13:09.600Z,15.48
2018-12-20T22:15:37.978Z,15.28
2018-12-20T22:18:07.314Z,15.43
2018-12-20T22:20:47.058Z,14.87
2018-12-20T22:23:10.924Z,14.78
2018-12-20T22:25:39.405Z,14.47
2018-12-20T22:28:08.116Z,13.68
2018-12-20T22:30:36.391Z,13.10
2018-12-20T22:33:04.728Z,13.20
2018-12-20T22:35:33.796Z,13.32
2018-12-20T22:38:02.071Z,13.68
2018-12-20T22:40:30.393Z,13.25
2018-12-20T22:42:58.828Z,13.28
2018-12-20T22:45:27.081Z,12.40
2018-12-20T22:47:55.460Z,13.05
2018-12-20T22:50:23.649Z,13.03
2018-12-20T22:52:51.892Z,13.13
2018-12-20T22:55:20.275Z,12.70
2018-12-20T22:57:48.574Z,13.13
2018-12-20T23:00:17.432Z,12.30
2018-12-20T23:02:45.921Z,12.73
2018-12-20T23:05:14.121Z,13.30
2018-12-20T23:07:42.376Z,13.10
2018-12-20T23:10:10.889Z,13.50
2018-12-20T23:12:39.170Z,12.37
2018-12-20T23:15:07.516Z,12.58
2018-12-20T23:17:35.930Z,11.60
2018-12-20T23:20:05.299Z,11.20
2018-12-20T23:22:33.540Z,11.15
2018-12-20T23:25:02.006Z,11.43
2018-12-20T23:27:30.293Z,11.08
2018-12-20T23:29:58.495Z,11.63
2018-12-20T23:32:26.880Z,11.68
2018-12-20T23:34:55.182Z,11.93
2018-12-20T23:37:23.497Z,11.28
2018-12-20T23:39:51.692Z,11.80
2018-12-20T23:42:20.106Z,11.63
2018-12-20T23:44:48.387Z,11.50
2018-12-20T23:47:16.662Z,11.48
2018-12-20T23:49:44.965Z,11.22
2018-12-20T23:52:13.519Z,12.10
2018-12-20T23:54:41.897Z,11.08
2018-12-20T23:57:10.507Z,9.68
2018-12-20T23:59:38.967Z,10.25
